METAR Data
IDs: Format: Raw Decoded Include TAF

Data at: 0742 UTC 23 Feb 2019

KJSO 230735Z AUTO 09003KT 1/2SM FG OVC001 11/11 A2986 RMK AO2 T01100110
KJSO 230715Z AUTO 00000KT 1/2SM FG OVC001 10/10 A2987 RMK AO2 T01080108
KJSO 230655Z AUTO 10003KT 1/2SM FG OVC001 10/10 A2987 RMK AO2 T01050105
KJSO 230635Z AUTO 00000KT 1/2SM FG OVC001 10/10 A2988 RMK AO2 T01050105
KJSO 230615Z AUTO 00000KT 1/2SM FG OVC001 10/10 A2989 RMK AO2 T01050105
KJSO 230555Z AUTO 00000KT 1/2SM FG OVC001 10/10 A2989 RMK AO2 T01050105
KJSO 230535Z AUTO 00000KT 1/2SM FG OVC001 10/10 A2990 RMK AO2 T01020102
KJSO 230515Z AUTO 04003KT 1/2SM FG OVC001 10/10 A2991 RMK AO2 T01030103
KJSO 230455Z AUTO 00000KT 1/4SM FG OVC001 10/10 A2991 RMK AO2 T01010101
KJSO 230435Z AUTO 00000KT 1/4SM -DZ OVC001 10/10 A2991 RMK AO2 T01020102
KJSO 230415Z AUTO 06003KT 1/4SM FG OVC001 10/10 A2991 RMK AO2 T01020102
KJSO 230355Z AUTO 00000KT 1/4SM FG OVC001 10/10 A2991 RMK AO2 T01010101
KJSO 230335Z AUTO 00000KT 1/4SM FG OVC001 10/10 A2991 RMK AO2 T01000100
KJSO 230315Z AUTO 07004KT 1/4SM FG OVC001 10/10 A2991 RMK AO2 T01000100
KJSO 230255Z AUTO 09003KT 1/4SM FG OVC001 10/10 A2991 RMK AO2 T01000100
KJSO 230235Z AUTO 07004KT 1/4SM FG OVC001 10/10 A2992 RMK AO2 T01000100
KJSO 230215Z AUTO 06003KT 1/4SM FG OVC001 10/10 A2992 RMK AO2 T01000100
KJSO 230155Z AUTO 05003KT 1/4SM FG OVC001 10/10 A2992 RMK AO2 T00990099
KJSO 230135Z AUTO 03003KT 1/4SM FG OVC001 10/10 A2992 RMK AO2 T00980098
KJSO 230115Z AUTO 05005KT 1/4SM FG OVC001 10/10 A2992 RMK AO2 T00980098
KJSO 230055Z AUTO 04004KT 1/4SM FG OVC001 10/10 A2992 RMK AO2 T00980098
KJSO 230035Z AUTO 05004KT M1/4SM FG OVC001 10/10 A2992 RMK AO2 T00980098
KJSO 230015Z AUTO 02003KT M1/4SM FG OVC001 10/10 A2993 RMK AO2 T00980098
KJSO 222355Z AUTO 03003KT M1/4SM FG OVC001 10/10 A2993 RMK AO2 T00980098
KJSO 222335Z AUTO 05004KT M1/4SM FG OVC001 10/10 A2993 RMK AO2 T00980098
KJSO 222315Z AUTO 04004KT M1/4SM FG OVC001 10/10 A2993 RMK AO2 T00980098
KJSO 222255Z AUTO 05005KT M1/4SM FG OVC001 10/10 A2993 RMK AO2 T00980098
KJSO 222235Z AUTO 04003KT 1/4SM FG OVC001 10/10 A2994 RMK AO2 T00990099
KJSO 222215Z AUTO 07008KT 1/2SM VCTS FG OVC001 10/10 A2993 RMK AO2 T00980098
KJSO 222155Z AUTO 07008KT 1 1/4SM BR OVC001 10/10 A2994 RMK AO2 T00980098
KJSO 222135Z AUTO 04010KT 1/2SM FG OVC001 10/10 A2993 RMK AO2 LTG DSNT SW T01000100
KJSO 222115Z AUTO 05009KT 1 1/4SM BR OVC001 10/10 A2994 RMK AO2 T01010101
KJSO 222055Z AUTO 03007KT 1SM -DZ OVC001 10/10 A2995 RMK AO2 LTG DSNT W P0001 T01010101
KJSO 222035Z AUTO 03004KT 3/4SM DZ OVC001 10/10 A2995 RMK AO2 P0001 T01000100
KJSO 222015Z AUTO 35003KT 1/4SM FG OVC001 10/10 A2996 RMK AO2 LTG DSNT N T01000100
KJSO 221955Z AUTO 03005KT 1/4SM FG OVC001 10/10 A2995 RMK AO2 LTG DSNT NW T01000100
KJSO 221935Z AUTO 05006KT 1/2SM -RA OVC001 10/10 A2995 RMK AO2 LTG DSNT N AND NW T00970097
KJSO 221915Z AUTO 01003KT 1SM -DZ OVC001 10/10 A2997 RMK AO2 LTG DSNT N AND W T00970097
KJSO 221855Z AUTO 01005KT 1/2SM -RA OVC001 09/09 A2998 RMK AO2 LTG DSNT N AND W P0001 T00950095
KJSO 221835Z AUTO 33004KT 1/2SM -VCTSDZ OVC001 09/09 A3000 RMK AO2 LTG DSNT NW P0001 T00950095
KJSO 221815Z AUTO 05005KT 2SM -RA OVC003 09/09 A2999 RMK AO2 LTG DSNT NE AND NW P0001 T00930093
KJSO 221755Z AUTO 05007KT 2SM +RA OVC001 09/09 A3000 RMK AO2 VIS 3/4V4 P0005 T00920092
KJSO 221735Z AUTO 05005KT 1 1/4SM -RA OVC001 08/08 A3000 RMK AO2 LTG DSNT NE T00910091
KJSO 221715Z AUTO 08004KT 1 1/2SM VCTS BR OVC001 08/08 A3003 RMK AO2 LTG DSNT NE THRU S T00890089
KJSO 221655Z AUTO 07006KT 1 1/4SM -VCTSRA OVC001 08/08 A3001 RMK AO2 LTG DSNT SW T00880088
KJSO 221635Z AUTO 08006KT 1SM BR OVC001 08/08 A3002 RMK AO2 LTG DSNT E T00870087
KJSO 221615Z AUTO 08007KT 1/2SM FG OVC001 08/08 A3001 RMK AO2 LTG DSNT SE T00840084
KJSO 221555Z AUTO 07007KT 1 1/4SM VCTS BR OVC001 08/08 A3002 RMK AO2 T00810081
KJSO 221535Z AUTO 06005KT 1/4SM FG OVC001 08/08 A3003 RMK AO2 LTG DSNT E T00810081
KJSO 221515Z AUTO 06007KT 1/4SM -DZ OVC001 07/07 A3002 RMK AO2 T00780078
KJSO 221455Z AUTO 05006KT 1/4SM -RA OVC001 07/07 A3002 RMK AO2 T00760076
KJSO 221435Z AUTO 08005KT M1/4SM FG OVC001 07/07 A3003 RMK AO2 T00750075
KJSO 221415Z AUTO 07006KT M1/4SM FG OVC001 07/07 A3001 RMK AO2 T00740074
KJSO 221355Z AUTO 08005KT M1/4SM FG OVC001 07/07 A3002 RMK AO2 T00730073
KJSO 221335Z AUTO 05005KT M1/4SM FG OVC001 07/07 A3002 RMK AO2 T00720072
KJSO 221315Z AUTO 07007KT 1/4SM FG OVC001 07/07 A3002 RMK AO2 T00710071
KJSO 221255Z AUTO 05006KT 3/4SM BR OVC001 07/07 A3001 RMK AO2 T00700070
KJSO 221235Z AUTO 08006KT 1/2SM FG OVC001 07/07 A3001 RMK AO2 T00700070
KJSO 221215Z AUTO 06005KT 1/2SM FG OVC001 07/07 A3001 RMK AO2 T00700070
KJSO 221155Z AUTO 05006KT 1/2SM FG OVC001 07/07 A3000 RMK AO2 T00700070
KJSO 221135Z AUTO 03004KT 1/2SM FG OVC001 07/07 A3000 RMK AO2 T00700070
KJSO 221115Z AUTO 07005KT 1/2SM FG OVC001 07/07 A3000 RMK AO2 T00700070
KJSO 221055Z AUTO 10007KT 1/2SM FG OVC001 07/07 A2998 RMK AO2 T00700070
KJSO 221035Z AUTO 09006KT 1/2SM FG OVC001 07/07 A2999 RMK AO2 T00700070
KJSO 221015Z AUTO 06006KT 3/4SM BR OVC001 07/07 A2999 RMK AO2 T00700070
KJSO 220955Z AUTO 07007KT 1/2SM FG OVC001 07/07 A3000 RMK AO2 T00700070
KJSO 220935Z AUTO 08007KT 3SM BR OVC001 06/06 A3000 RMK AO2 T00690069
KJSO 220915Z AUTO 05005KT 1/2SM FG OVC001 07/07 A3003 RMK AO2 T00700070
KJSO 220855Z AUTO 06005KT 3/4SM BR OVC001 06/06 A3001 RMK AO2 T00690069
KJSO 220835Z AUTO 06007KT 3/4SM BR OVC001 06/06 A3002 RMK AO2 LTG DSNT NE T00690069
KJSO 220815Z AUTO 05005KT 3/4SM BR OVC001 06/06 A3003 RMK AO2 T00680068
KJSO 220755Z AUTO 06009KT 1SM BR OVC001 06/06 A3002 RMK AO2 T00680068
KJSO 220735Z AUTO 08008KT 1 1/4SM BR OVC001 06/06 A3003 RMK AO2 T00680068
KJSO 220655Z AUTO 06007KT 1 1/2SM BR OVC001 06/06 A3003 RMK AO2 T00670067
KJSO 220635Z AUTO 06006KT 2SM BR OVC001 06/06 A3003 RMK AO2 T00670067
KJSO 220615Z AUTO 05007KT 1 1/2SM BR OVC001 06/06 A3003 RMK AO2 T00660066
KJSO 220555Z AUTO 06007KT 1 3/4SM BR OVC001 06/06 A3002 RMK AO2 P0001 T00660066
KJSO 220535Z AUTO 06009KT 2 1/2SM BR OVC003 06/06 A3002 RMK AO2 P0001 T00660066
KJSO 220515Z AUTO 07011G15KT 2 1/2SM -RA OVC003 06/06 A3002 RMK AO2 P0001 T00670067
KJSO 220455Z AUTO 07010G17KT 3SM BR OVC003 06/06 A3003 RMK AO2 T00670067
KJSO 220435Z AUTO 06008KT 3SM BR OVC003 06/06 A3004 RMK AO2 T00680068
KJSO 220415Z AUTO 07009KT 3SM BR OVC003 06/06 A3002 RMK AO2 T00680068
KJSO 220355Z AUTO 06009KT 3SM BR OVC003 06/06 A3002 RMK AO2 T00690069
KJSO 220335Z AUTO 06007KT 4SM BR OVC003 07/07 A3003 RMK AO2 T00700070
KJSO 220315Z AUTO 06007KT 4SM BR OVC003 07/07 A3002 RMK AO2 T00700070
KJSO 220255Z AUTO 07010G16KT 5SM BR OVC003 07/07 A3000 RMK AO2 T00700070
KJSO 220235Z AUTO 07011G17KT 5SM BR OVC003 07/07 A2999 RMK AO2 T00700070
KJSO 220215Z AUTO 07011G18KT 5SM BR OVC005 07/07 A2999 RMK AO2 T00700070
KJSO 220155Z AUTO 07013G18KT 7SM OVC005 07/06 A2999 RMK AO2 T00700068
KJSO 220135Z AUTO 07013G19KT 7SM DZ OVC005 07/06 A2998 RMK AO2 T00700068
KJSO 220115Z AUTO 07010G16KT 7SM OVC005 07/07 A2999 RMK AO2 T00720070
KJSO 220055Z AUTO 07013G18KT 10SM OVC005 07/07 A2997 RMK AO2 T00710070
KJSO 220035Z AUTO 07010G17KT 10SM OVC005 07/06 A2997 RMK AO2 T00700069
KJSO 220015Z AUTO 06012KT 10SM OVC007 07/06 A2996 RMK AO2 T00700068
KJSO 212355Z AUTO 06010G19KT 7SM OVC007 07/07 A2997 RMK AO2 T00720070
KJSO 212335Z AUTO 06015G23KT 7SM BKN006 OVC011 07/07 A2998 RMK AO2 T00730070
KJSO 212315Z AUTO 06010G17KT 7SM -RA BKN006 OVC011 07/07 A2999 RMK AO2 T00760073
KJSO 212255Z AUTO 05009G15KT 7SM OVC008 07/07 A2999 RMK AO2 T00770073
KJSO 212235Z AUTO 04009KT 7SM -DZ OVC008 07/07 A3000 RMK AO2 T00770072
KJSO 212215Z AUTO 06013G17KT 7SM OVC008 07/07 A2999 RMK AO2 T00800071
KJSO 212155Z AUTO 05010G17KT 10SM OVC010 07/06 A2998 RMK AO2 T00800068
KJSO 212115Z AUTO 06009G16KT 10SM OVC010 07/06 A2998 RMK AO2 T00800067
KJSO 212055Z AUTO 05009G16KT 10SM OVC010 07/06 A2999 RMK AO2 T00800066
KJSO 212035Z AUTO 04012KT 10SM OVC008 07/06 A2998 RMK AO2 T00800068
KJSO 212015Z AUTO 05012G15KT 10SM BKN008 OVC011 08/07 A2998 RMK AO2 T00810072
KJSO 211955Z AUTO 05010KT 4SM BR BKN008 BKN012 OVC027 07/07 A2999 RMK AO2 LTG DSNT E AND NW T00800072